Time;durP1;ratioP1;P1;durP2;ratioP2;P2;SDS_P1;SDS_P2;PMS_P1;PMS_P2;Temp;Humidity;BMP_temperature;BMP_pressure;BME280_temperature;BME280_humidity;BME280_pressure;Samples;Min_cycle;Max_cycle;Signal;HPM_P1;HPM_P2
2022/03/26 00:00:37;;;;;;;;;;;8.80;92.60;;;;;;4944365;28;19937;-86
2022/03/26 00:03:15;;;;;;;;;;;8.00;92.50;;;;;;4940256;29;19925;-85
2022/03/26 00:05:49;;;;;;;;;;;8.00;92.80;;;;;;4925125;29;19921;-86
2022/03/26 00:12:08;;;;;;;;;;;7.90;93.00;;;;;;4932872;29;19934;-88
2022/03/26 00:14:43;;;;;;;;;;;7.80;93.00;;;;;;4955146;28;19918;-87
2022/03/26 00:17:12;;;;;;;;;;;7.90;93.10;;;;;;4939673;29;19929;-87
2022/03/26 00:23:02;;;;;;;;;;;7.70;93.40;;;;;;4958771;28;19915;-87
2022/03/26 00:25:46;;;;;;;;;;;7.60;93.60;;;;;;4957807;28;19927;-87
2022/03/26 00:28:15;;;;;;;;;;;7.70;93.50;;;;;;4958919;28;19915;-87
2022/03/26 00:31:12;;;;;;;;;;;7.70;93.70;;;;;;4917950;29;19941;-88
2022/03/26 00:33:42;;;;;;;;;;;7.50;93.40;;;;;;4956953;29;19927;-86
2022/03/26 00:36:14;;;;;;;;;;;7.40;93.90;;;;;;4956642;29;19933;-87
2022/03/26 00:38:46;;;;;;;;;;;7.40;94.10;;;;;;4957830;28;19915;-86
2022/03/26 00:41:16;;;;;;;;;;;7.30;94.20;;;;;;4955959;28;19933;-88
2022/03/26 00:43:51;;;;;;;;;;;7.20;94.20;;;;;;4956584;28;20087;-87
2022/03/26 00:46:27;;;;;;;;;;;7.10;94.40;;;;;;4941678;29;19915;-87
2022/03/26 00:49:01;;;;;;;;;;;7.00;95.10;;;;;;4958304;28;19925;-87
2022/03/26 00:51:35;;;;;;;;;;;6.90;94.90;;;;;;4941779;29;19915;-88
2022/03/26 00:54:12;;;;;;;;;;;6.90;95.70;;;;;;4941605;29;19911;-87
2022/03/26 00:56:43;;;;;;;;;;;6.80;96.10;;;;;;4957628;28;19911;-86
2022/03/26 00:59:12;;;;;;;;;;;6.70;95.90;;;;;;4941508;29;19933;-87
2022/03/26 01:01:44;;;;;;;;;;;6.70;96.70;;;;;;4956753;28;19931;-87
2022/03/26 01:04:14;;;;;;;;;;;6.70;96.50;;;;;;4929585;29;19927;-88
2022/03/26 01:06:47;;;;;;;;;;;6.50;96.30;;;;;;4938536;29;19927;-86
2022/03/26 01:09:19;;;;;;;;;;;6.50;96.50;;;;;;4941595;29;19926;-86
2022/03/26 01:11:52;;;;;;;;;;;6.70;97.30;;;;;;4957731;28;19925;-87
2022/03/26 01:14:33;;;;;;;;;;;6.10;97.50;;;;;;4943531;28;19915;-86
2022/03/26 18:11:21;;;;;;;;;;;15.80;74.00;;;;;;5024209;23;19926;-86
2022/03/26 18:13:53;;;;;;;;;;;15.50;74.50;;;;;;4989224;28;19931;-86
2022/03/26 18:16:21;;;;;;;;;;;15.10;74.90;;;;;;5021200;28;19925;-87
2022/03/26 18:18:49;;;;;;;;;;;15.10;75.80;;;;;;5005502;28;19943;-86
2022/03/26 18:21:21;;;;;;;;;;;14.80;76.60;;;;;;5005537;28;19926;-84
2022/03/26 18:23:50;;;;;;;;;;;14.90;76.40;;;;;;5005530;28;19924;-86
2022/03/26 18:26:20;;;;;;;;;;;14.70;77.80;;;;;;5007453;28;19926;-88
2022/03/26 18:28:48;;;;;;;;;;;14.70;76.30;;;;;;5021808;28;19930;-86
2022/03/26 18:31:17;;;;;;;;;;;14.50;78.20;;;;;;5006894;28;19926;-84
2022/03/26 18:33:48;;;;;;;;;;;14.30;78.90;;;;;;5008966;28;19934;-85
2022/03/26 18:36:22;;;;;;;;;;;14.20;78.60;;;;;;5008955;28;19929;-88
2022/03/26 18:38:51;;;;;;;;;;;12.40;78.30;;;;;;5022840;28;19936;-87
2022/03/26 18:41:20;;;;;;;;;;;14.10;81.30;;;;;;5022927;28;19940;-87
2022/03/26 18:43:48;;;;;;;;;;;13.90;80.60;;;;;;5003118;28;19929;-85
2022/03/26 18:46:18;;;;;;;;;;;13.80;82.50;;;;;;4989358;28;19933;-85
2022/03/26 18:48:48;;;;;;;;;;;13.70;80.50;;;;;;5021218;28;19940;-84
2022/03/26 18:51:17;;;;;;;;;;;13.60;81.70;;;;;;5026612;28;20307;-87
2022/03/26 18:53:45;;;;;;;;;;;14.50;83.60;;;;;;5025016;28;19952;-85
2022/03/26 18:56:13;;;;;;;;;;;13.50;84.30;;;;;;4997082;28;19934;-86
2022/03/26 18:58:41;;;;;;;;;;;13.40;85.00;;;;;;5007227;28;19933;-84
2022/03/26 19:01:10;;;;;;;;;;;13.20;84.50;;;;;;5007274;28;19929;-84
2022/03/26 19:03:40;;;;;;;;;;;12.90;84.40;;;;;;5006308;28;19922;-86
2022/03/26 19:06:10;;;;;;;;;;;13.00;85.10;;;;;;5006396;28;19926;-84
2022/03/26 19:08:38;;;;;;;;;;;13.00;86.40;;;;;;5023264;28;19925;-85
2022/03/26 19:11:06;;;;;;;;;;;13.00;85.30;;;;;;5005786;28;19936;-86
2022/03/26 19:13:41;;;;;;;;;;;13.10;86.20;;;;;;5023198;28;19929;-88
2022/03/26 19:16:11;;;;;;;;;;;12.90;85.60;;;;;;5007729;28;19925;-84
2022/03/26 19:18:39;;;;;;;;;;;12.80;86.00;;;;;;5023520;28;19925;-86
2022/03/26 19:21:17;;;;;;;;;;;11.60;86.70;;;;;;5022051;28;19919;-83
2022/03/26 19:23:45;;;;;;;;;;;12.90;86.50;;;;;;5024443;28;19929;-83
2022/03/26 19:26:44;;;;;;;;;;;12.60;87.50;;;;;;4996169;28;19936;-84
2022/03/26 19:32:00;;;;;;;;;;;12.70;88.50;;;;;;5024941;28;19934;-84
2022/03/26 19:34:28;;;;;;;;;;;12.50;86.90;;;;;;5023837;28;20265;-84
2022/03/26 19:36:56;;;;;;;;;;;12.40;88.10;;;;;;5022311;28;19925;-84
2022/03/26 19:39:25;;;;;;;;;;;12.60;88.80;;;;;;5022803;28;19926;-86
2022/03/26 19:41:53;;;;;;;;;;;12.30;88.20;;;;;;5022436;28;19940;-85
2022/03/26 19:44:21;;;;;;;;;;;12.30;87.60;;;;;;5023668;28;19940;-86
2022/03/26 19:46:50;;;;;;;;;;;12.30;88.40;;;;;;5004469;28;19937;-86
2022/03/26 19:49:19;;;;;;;;;;;12.20;89.50;;;;;;4989863;28;19933;-84
2022/03/26 19:51:48;;;;;;;;;;;12.30;88.30;;;;;;5022150;28;20085;-84
2022/03/26 19:54:16;;;;;;;;;;;12.10;90.40;;;;;;4991840;28;19940;-82
2022/03/26 19:56:45;;;;;;;;;;;12.10;90.00;;;;;;5025097;28;19929;-83
2022/03/26 19:59:13;;;;;;;;;;;12.00;91.00;;;;;;5005722;28;19930;-84
2022/03/26 20:01:41;;;;;;;;;;;11.80;91.50;;;;;;4991326;28;20318;-82
2022/03/26 20:04:11;;;;;;;;;;;11.90;91.70;;;;;;5023521;28;19929;-81
2022/03/26 20:06:40;;;;;;;;;;;11.70;91.30;;;;;;5022305;28;19929;-83
2022/03/26 20:09:08;;;;;;;;;;;11.70;92.90;;;;;;4997737;28;19941;-83
2022/03/26 20:11:42;;;;;;;;;;;11.50;93.20;;;;;;5023087;28;19936;-82
2022/03/26 20:14:11;;;;;;;;;;;11.60;92.90;;;;;;4989549;28;19940;-82
2022/03/26 20:19:27;;;;;;;;;;;11.50;93.80;;;;;;5025367;28;19926;-80
2022/03/26 20:21:56;;;;;;;;;;;11.40;94.30;;;;;;5012221;28;20252;-82
2022/03/26 20:24:24;;;;;;;;;;;11.40;94.00;;;;;;5009632;28;19926;-81
2022/03/26 20:27:12;;;;;;;;;;;11.40;94.90;;;;;;5026350;28;19925;-84
2022/03/26 20:29:44;;;;;;;;;;;10.40;95.10;;;;;;5008900;28;19925;-82
2022/03/26 20:32:41;;;;;;;;;;;11.20;95.00;;;;;;5026384;28;19939;-83
2022/03/26 20:35:10;;;;;;;;;;;9.90;94.00;;;;;;5009401;28;19930;-81
2022/03/26 20:37:38;;;;;;;;;;;11.20;95.00;;;;;;5004354;28;19933;-84
2022/03/26 20:40:09;;;;;;;;;;;11.20;94.80;;;;;;4989737;28;19933;-83
2022/03/26 20:42:38;;;;;;;;;;;11.40;95.60;;;;;;5004629;28;19929;-81
2022/03/26 20:45:08;;;;;;;;;;;9.60;95.20;;;;;;5021373;28;19943;-83
2022/03/26 20:47:38;;;;;;;;;;;12.60;95.90;;;;;;5022117;28;19934;-82
2022/03/26 20:50:06;;;;;;;;;;;11.00;97.00;;;;;;5023879;28;19932;-81
2022/03/26 20:52:35;;;;;;;;;;;11.00;96.80;;;;;;5004042;28;19929;-85
2022/03/26 20:55:05;;;;;;;;;;;10.90;97.60;;;;;;5007054;28;19940;-81
2022/03/26 20:57:35;;;;;;;;;;;11.00;97.10;;;;;;4975357;28;19937;-80
2022/03/26 21:00:04;;;;;;;;;;;10.90;97.40;;;;;;5008643;28;19933;-81
2022/03/26 21:02:58;;;;;;;;;;;11.00;98.20;;;;;;5025981;28;19929;-82
2022/03/26 21:05:27;;;;;;;;;;;10.90;96.20;;;;;;4995122;28;20307;-82
2022/03/26 21:07:56;;;;;;;;;;;11.40;98.10;;;;;;5025479;28;19934;-81
2022/03/26 21:10:26;;;;;;;;;;;10.50;99.60;;;;;;5023465;28;19929;-83
2022/03/26 21:12:55;;;;;;;;;;;10.70;98.20;;;;;;5027154;28;19914;-83
2022/03/26 21:15:25;;;;;;;;;;;10.70;98.60;;;;;;5013865;28;19924;-87
2022/03/26 21:17:54;;;;;;;;;;;10.60;97.60;;;;;;4991600;28;19936;-82
2022/03/26 21:20:24;;;;;;;;;;;10.80;99.30;;;;;;5006000;28;19933;-83
2022/03/26 21:22:56;;;;;;;;;;;10.60;99.40;;;;;;5005537;28;19926;-80
2022/03/26 21:25:47;;;;;;;;;;;10.50;99.90;;;;;;5022857;28;19947;-81
2022/03/26 21:28:16;;;;;;;;;;;10.50;99.90;;;;;;4992030;28;19925;-83
2022/03/26 21:30:50;;;;;;;;;;;10.40;99.80;;;;;;5003083;28;19934;-80
2022/03/26 21:33:23;;;;;;;;;;;10.40;99.90;;;;;;5007556;28;19933;-82
2022/03/26 21:35:52;;;;;;;;;;;10.40;99.90;;;;;;4987474;28;19925;-83
2022/03/26 21:38:24;;;;;;;;;;;10.40;99.90;;;;;;5026216;28;19934;-86
2022/03/26 21:40:55;;;;;;;;;;;10.40;99.90;;;;;;5007513;28;19929;-84
2022/03/26 21:43:27;;;;;;;;;;;8.90;99.90;;;;;;5006082;28;19929;-81
2022/03/26 21:45:56;;;;;;;;;;;10.30;99.90;;;;;;5023918;28;19925;-82
2022/03/26 21:48:24;;;;;;;;;;;10.20;99.90;;;;;;5025779;28;19936;-82
2022/03/26 21:50:54;;;;;;;;;;;10.50;99.90;;;;;;5024344;28;19929;-81
2022/03/26 21:53:22;;;;;;;;;;;10.20;99.90;;;;;;5026337;28;19934;-80
2022/03/26 21:55:50;;;;;;;;;;;10.20;99.90;;;;;;5026916;28;19929;-80
2022/03/26 21:58:21;;;;;;;;;;;10.50;99.90;;;;;;5011389;28;19922;-81
2022/03/26 22:00:49;;;;;;;;;;;8.70;99.90;;;;;;5025475;28;19929;-83
2022/03/26 22:03:17;;;;;;;;;;;10.00;99.90;;;;;;5012133;28;19932;-82
2022/03/26 22:05:46;;;;;;;;;;;10.00;99.90;;;;;;5028081;28;20503;-83
2022/03/26 22:08:14;;;;;;;;;;;10.00;99.90;;;;;;4993500;28;19936;-84
2022/03/26 22:10:43;;;;;;;;;;;9.90;99.90;;;;;;5008449;28;19932;-82
2022/03/26 22:13:11;;;;;;;;;;;10.00;99.90;;;;;;5006791;28;19933;-81
2022/03/26 22:15:40;;;;;;;;;;;9.90;99.90;;;;;;4991827;28;19926;-85
2022/03/26 22:18:08;;;;;;;;;;;9.90;99.90;;;;;;5026078;28;19933;-81
2022/03/26 22:20:36;;;;;;;;;;;9.80;99.90;;;;;;5025640;28;19944;-83
2022/03/26 22:23:10;;;;;;;;;;;9.80;99.90;;;;;;5025051;28;19966;-88
2022/03/26 22:25:40;;;;;;;;;;;11.20;99.90;;;;;;5028218;28;19932;-82
2022/03/26 22:28:09;;;;;;;;;;;9.80;99.90;;;;;;5028205;28;19929;-81
2022/03/26 22:30:37;;;;;;;;;;;9.90;99.90;;;;;;5010570;28;19936;-85
2022/03/26 22:33:06;;;;;;;;;;;9.10;99.90;;;;;;5029243;28;19926;-82
2022/03/26 22:35:34;;;;;;;;;;;9.70;99.90;;;;;;5028292;28;20336;-83
2022/03/26 22:38:03;;;;;;;;;;;9.70;99.90;;;;;;5016566;28;19953;-84
2022/03/26 22:40:34;;;;;;;;;;;9.80;99.90;;;;;;4999971;28;19944;-86
2022/03/26 22:43:05;;;;;;;;;;;9.60;99.90;;;;;;5028592;28;20094;-83
2022/03/26 22:45:35;;;;;;;;;;;9.70;99.90;;;;;;5013089;28;20342;-83
2022/03/26 22:48:05;;;;;;;;;;;9.50;99.90;;;;;;4996594;28;19929;-84
2022/03/26 22:50:33;;;;;;;;;;;9.60;99.90;;;;;;5028491;28;19929;-85
2022/03/26 22:53:01;;;;;;;;;;;9.50;99.90;;;;;;5014923;28;19933;-83
2022/03/26 22:55:31;;;;;;;;;;;9.30;99.90;;;;;;5012887;28;19940;-85
2022/03/26 22:58:00;;;;;;;;;;;9.50;99.90;;;;;;5013780;28;19913;-89
2022/03/26 23:00:48;;;;;;;;;;;9.40;99.90;;;;;;5014194;28;19925;-82
2022/03/26 23:03:19;;;;;;;;;;;9.40;99.90;;;;;;5012998;28;19936;-82
2022/03/26 23:05:49;;;;;;;;;;;9.50;99.90;;;;;;5009895;28;19925;-82
2022/03/26 23:08:17;;;;;;;;;;;9.40;99.90;;;;;;4996601;28;20366;-84
2022/03/26 23:10:45;;;;;;;;;;;9.30;99.90;;;;;;5008918;28;19926;-85
2022/03/26 23:13:13;;;;;;;;;;;9.30;99.90;;;;;;4981434;28;19930;-83
2022/03/26 23:15:44;;;;;;;;;;;7.50;99.90;;;;;;5012706;28;19940;-81
2022/03/26 23:18:12;;;;;;;;;;;9.20;99.90;;;;;;4998185;28;19930;-83
2022/03/26 23:20:40;;;;;;;;;;;9.20;99.90;;;;;;5010948;28;19934;-82
2022/03/26 23:23:08;;;;;;;;;;;9.30;99.90;;;;;;5027622;28;19920;-84
2022/03/26 23:25:36;;;;;;;;;;;9.10;99.90;;;;;;4996036;28;19932;-81
2022/03/26 23:28:05;;;;;;;;;;;7.20;99.90;;;;;;5011154;28;19955;-82
2022/03/26 23:30:34;;;;;;;;;;;9.20;99.90;;;;;;5010888;28;19926;-82
2022/03/26 23:33:04;;;;;;;;;;;9.20;99.90;;;;;;5009263;28;19936;-82
2022/03/26 23:35:34;;;;;;;;;;;9.20;99.90;;;;;;5009600;28;19929;-81
2022/03/26 23:38:02;;;;;;;;;;;9.00;99.90;;;;;;5010429;28;19936;-82
2022/03/26 23:40:50;;;;;;;;;;;9.00;99.90;;;;;;5010073;28;19926;-80
2022/03/26 23:43:19;;;;;;;;;;;9.00;99.90;;;;;;5009180;28;19936;-84
2022/03/26 23:45:47;;;;;;;;;;;9.40;99.90;;;;;;4992480;28;19948;-81
2022/03/26 23:48:16;;;;;;;;;;;8.90;99.90;;;;;;5008376;28;19933;-83
2022/03/26 23:50:45;;;;;;;;;;;8.90;99.90;;;;;;5009780;28;19929;-82
2022/03/26 23:53:14;;;;;;;;;;;8.80;99.90;;;;;;4993141;28;19929;-82
2022/03/26 23:55:42;;;;;;;;;;;8.80;99.90;;;;;;5010084;28;19940;-83
2022/03/26 23:58:11;;;;;;;;;;;8.90;99.90;;;;;;4993694;28;19936;-85
